Chiricana — 3EKU3 — position and weather

sailwx.info

Track history (hours):
 
Tides and Currents Weather Stations Pressure Air Temp Water Temp Dewpoint Dewpoint Depression Visibility Wind Speed Wind Dir Waves Ship Positions

Chiricana

Last reported at 2015-Jan-25 14:24 UTC. Time now 2015-Jan-28 09:19 UTC.
Position N 22°11' E 114°28'.

Length 300 m; draft 12.2 m.

Type: Ship (hazmat cat D). MMSI: 372829000.

Date/timePositionNaut miles runAvg speedWind from/ knotsBaromVisibWave heightAir tempDewpointWater temp
2015-Jan-25 14:24N 22°11' E 114°28'26 5.2
2015-Jan-25 09:31N 22°34' E 114°16'0 0.0
2015-Jan-25 07:20N 22°34' E 114°16'0 0.0
2015-Jan-25 06:07N 22°34' E 114°16'0 0.0
2015-Jan-25 05:31N 22°34' E 114°16'0 0.0
2015-Jan-25 03:31N 22°34' E 114°16'0 0.0
2015-Jan-25 02:31N 22°34' E 114°16'0 0.0
2015-Jan-25 01:13N 22°34' E 114°16'0 0.0
2015-Jan-25 00:31N 22°34' E 114°16'0 0.0
2015-Jan-24 22:19N 22°34' E 114°16'0 0.0
2015-Jan-24 21:31N 22°34' E 114°16'0 0.0
2015-Jan-24 20:25N 22°34' E 114°16'0 0.0
2015-Jan-24 19:25N 22°34' E 114°16'0 0.0
2015-Jan-24 18:25N 22°34' E 114°16'0 0.0
2015-Jan-24 16:19N 22°34' E 114°16'1 0.7
2015-Jan-24 15:32N 22°34' E 114°16'2010.1
2015-Jan-24 13:32N 22°17' E 114°27'1513.6
2015-Jan-24 12:25N 22°08' E 114°14'11 8.4
2015-Jan-24 11:05N 22°16' E 114°06'3 6.6
2015-Jan-24 10:33N 22°20' E 114°07'0 0.4
2015-Jan-24 09:32N 22°20' E 114°08'0 0.0
2015-Jan-24 08:32N 22°20' E 114°08'0 0.0
2015-Jan-24 07:32N 22°20' E 114°08'0 0.0
2015-Jan-24 06:29N 22°20' E 114°08'0 0.0
2015-Jan-24 05:32N 22°20' E 114°08'0 0.1
2015-Jan-24 04:29N 22°20' E 114°08'0 0.0
2015-Jan-24 03:29N 22°20' E 114°08'0 0.1
2015-Jan-24 02:29N 22°20' E 114°08'0 0.0
2015-Jan-24 01:30N 22°20' E 114°08'0 0.0
2015-Jan-24 00:29N 22°20' E 114°08'0 0.0
2015-Jan-23 23:26N 22°20' E 114°08'0 0.1
2015-Jan-23 22:29N 22°20' E 114°08'0 0.0
2015-Jan-23 19:29N 22°20' E 114°08'0 0.0
2015-Jan-23 17:29N 22°20' E 114°08'0 0.0
2015-Jan-23 16:29N 22°20' E 114°08'0 0.0
2015-Jan-23 15:29N 22°20' E 114°08'0 0.0
2015-Jan-23 14:29N 22°20' E 114°08'0 0.0
2015-Jan-23 13:29N 22°20' E 114°08'0 0.0
2015-Jan-23 12:29N 22°20' E 114°08'0 0.0
2015-Jan-23 11:29N 22°20' E 114°08'0 0.0
2015-Jan-23 09:29N 22°20' E 114°08'2 2.6
2015-Jan-23 08:33N 22°18' E 114°06'11 9.3
2015-Jan-23 07:25N 22°10' E 114°13'9 9.9
2015-Jan-23 06:32N 22°07' E 114°22'1611.2
2015-Jan-23 05:04N 21°51' E 114°19'  
2015-Jan-19 02:06N 01°16' E 104°16'814.4
2015-Jan-19 01:33N 01°15' E 104°08'1312.7
2015-Jan-19 00:33N 01°13' E 103°55'5 5.1
2015-Jan-18 23:32N 01°16' E 103°51'0 0.0
2015-Jan-18 22:32N 01°16' E 103°51'0 0.0
2015-Jan-18 21:32N 01°16' E 103°51'0 0.0
2015-Jan-18 20:26N 01°16' E 103°51'0 0.0
2015-Jan-18 19:32N 01°16' E 103°51'0 0.0
2015-Jan-18 18:32N 01°16' E 103°51'0 0.0
2015-Jan-18 17:32N 01°16' E 103°51'0 0.0
2015-Jan-18 16:32N 01°16' E 103°51'0 0.0
2015-Jan-18 15:32N 01°16' E 103°51'0 0.0
2015-Jan-18 14:32N 01°16' E 103°51'0 0.0
2015-Jan-18 13:29N 01°16' E 103°51'0 0.0
2015-Jan-18 12:32N 01°16' E 103°51'0 0.0
2015-Jan-18 11:23N 01°16' E 103°51'0 0.0
2015-Jan-18 10:14N 01°16' E 103°51'0 0.0
2015-Jan-18 09:32N 01°16' E 103°51'0 0.0
2015-Jan-18 08:14N 01°16' E 103°51'0 0.0
2015-Jan-18 07:20N 01°16' E 103°51'0 0.0
2015-Jan-18 06:32N 01°16' E 103°51'0 0.0
2015-Jan-18 05:32N 01°16' E 103°51'0 0.0
2015-Jan-18 04:26N 01°16' E 103°51'0 0.0
2015-Jan-18 03:29N 01°16' E 103°51'0 0.0
2015-Jan-18 01:33N 01°16' E 103°51'2 2.5
2015-Jan-18 00:33N 01°14' E 103°53'3 2.5
2015-Jan-17 23:28N 01°11' E 103°51'8 8.0
2015-Jan-17 22:32N 01°07' E 103°45'6410.6
2015-Jan-17 16:31N 01°37' E 102°49'1212.9
2015-Jan-17 15:33N 01°43' E 102°38'1312.5
2015-Jan-17 14:31N 01°48' E 102°26'3012.5
2015-Jan-17 12:07N 02°05' E 102°01'  
Track history (hours):
 
Tides and Currents Weather Stations Pressure Air Temp Water Temp Dewpoint Dewpoint Depression Visibility Wind Speed Wind Dir Waves Ship Positions

Chiricana

Last reported at 2015-Jan-25 14:24 UTC. Time now 2015-Jan-28 09:19 UTC.
Position N 22°11' E 114°28'.

Length 300 m; draft 12.2 m.

Type: Ship (hazmat cat D). MMSI: 372829000.

Date/timePositionNaut miles runAvg speedWind from/ knotsBaromVisibWave heightAir tempDewpointWater temp
2015-Jan-25 14:24N 22°11' E 114°28'26 5.2
2015-Jan-25 09:31N 22°34' E 114°16'0 0.0
2015-Jan-25 07:20N 22°34' E 114°16'0 0.0
2015-Jan-25 06:07N 22°34' E 114°16'0 0.0
2015-Jan-25 05:31N 22°34' E 114°16'0 0.0
2015-Jan-25 03:31N 22°34' E 114°16'0 0.0
2015-Jan-25 02:31N 22°34' E 114°16'0 0.0
2015-Jan-25 01:13N 22°34' E 114°16'0 0.0
2015-Jan-25 00:31N 22°34' E 114°16'0 0.0
2015-Jan-24 22:19N 22°34' E 114°16'0 0.0
2015-Jan-24 21:31N 22°34' E 114°16'0 0.0
2015-Jan-24 20:25N 22°34' E 114°16'0 0.0
2015-Jan-24 19:25N 22°34' E 114°16'0 0.0
2015-Jan-24 18:25N 22°34' E 114°16'0 0.0
2015-Jan-24 16:19N 22°34' E 114°16'1 0.7
2015-Jan-24 15:32N 22°34' E 114°16'2010.1
2015-Jan-24 13:32N 22°17' E 114°27'1513.6
2015-Jan-24 12:25N 22°08' E 114°14'11 8.4
2015-Jan-24 11:05N 22°16' E 114°06'3 6.6
2015-Jan-24 10:33N 22°20' E 114°07'0 0.4
2015-Jan-24 09:32N 22°20' E 114°08'0 0.0
2015-Jan-24 08:32N 22°20' E 114°08'0 0.0
2015-Jan-24 07:32N 22°20' E 114°08'0 0.0
2015-Jan-24 06:29N 22°20' E 114°08'0 0.0
2015-Jan-24 05:32N 22°20' E 114°08'0 0.1
2015-Jan-24 04:29N 22°20' E 114°08'0 0.0
2015-Jan-24 03:29N 22°20' E 114°08'0 0.1
2015-Jan-24 02:29N 22°20' E 114°08'0 0.0
2015-Jan-24 01:30N 22°20' E 114°08'0 0.0
2015-Jan-24 00:29N 22°20' E 114°08'0 0.0
2015-Jan-23 23:26N 22°20' E 114°08'0 0.1
2015-Jan-23 22:29N 22°20' E 114°08'0 0.0
2015-Jan-23 19:29N 22°20' E 114°08'0 0.0
2015-Jan-23 17:29N 22°20' E 114°08'0 0.0
2015-Jan-23 16:29N 22°20' E 114°08'0 0.0
2015-Jan-23 15:29N 22°20' E 114°08'0 0.0
2015-Jan-23 14:29N 22°20' E 114°08'0 0.0
2015-Jan-23 13:29N 22°20' E 114°08'0 0.0
2015-Jan-23 12:29N 22°20' E 114°08'0 0.0
2015-Jan-23 11:29N 22°20' E 114°08'0 0.0
2015-Jan-23 09:29N 22°20' E 114°08'2 2.6
2015-Jan-23 08:33N 22°18' E 114°06'11 9.3
2015-Jan-23 07:25N 22°10' E 114°13'9 9.9
2015-Jan-23 06:32N 22°07' E 114°22'1611.2
2015-Jan-23 05:04N 21°51' E 114°19'  
2015-Jan-19 02:06N 01°16' E 104°16'814.4
2015-Jan-19 01:33N 01°15' E 104°08'1312.7
2015-Jan-19 00:33N 01°13' E 103°55'5 5.1
2015-Jan-18 23:32N 01°16' E 103°51'0 0.0
2015-Jan-18 22:32N 01°16' E 103°51'0 0.0
2015-Jan-18 21:32N 01°16' E 103°51'0 0.0
2015-Jan-18 20:26N 01°16' E 103°51'0 0.0
2015-Jan-18 19:32N 01°16' E 103°51'0 0.0
2015-Jan-18 18:32N 01°16' E 103°51'0 0.0
2015-Jan-18 17:32N 01°16' E 103°51'0 0.0
2015-Jan-18 16:32N 01°16' E 103°51'0 0.0
2015-Jan-18 15:32N 01°16' E 103°51'0 0.0
2015-Jan-18 14:32N 01°16' E 103°51'0 0.0
2015-Jan-18 13:29N 01°16' E 103°51'0 0.0
2015-Jan-18 12:32N 01°16' E 103°51'0 0.0
2015-Jan-18 11:23N 01°16' E 103°51'0 0.0
2015-Jan-18 10:14N 01°16' E 103°51'0 0.0
2015-Jan-18 09:32N 01°16' E 103°51'0 0.0
2015-Jan-18 08:14N 01°16' E 103°51'0 0.0
2015-Jan-18 07:20N 01°16' E 103°51'0 0.0
2015-Jan-18 06:32N 01°16' E 103°51'0 0.0
2015-Jan-18 05:32N 01°16' E 103°51'0 0.0
2015-Jan-18 04:26N 01°16' E 103°51'0 0.0
2015-Jan-18 03:29N 01°16' E 103°51'0 0.0
2015-Jan-18 01:33N 01°16' E 103°51'2 2.5
2015-Jan-18 00:33N 01°14' E 103°53'3 2.5
2015-Jan-17 23:28N 01°11' E 103°51'8 8.0
2015-Jan-17 22:32N 01°07' E 103°45'6410.6
2015-Jan-17 16:31N 01°37' E 102°49'1212.9
2015-Jan-17 15:33N 01°43' E 102°38'1312.5
2015-Jan-17 14:31N 01°48' E 102°26'3012.5
2015-Jan-17 12:07N 02°05' E 102°01'  

Dump ship's entire track history